sensor_id;sensor_type;location;lat;lon;timestamp;P1;durP1;ratioP1;P2;durP2;ratioP2
5977;SDS011;3015;51.390;12.256;2022-10-22T00:00:12;12.70;;;10.87;;
5977;SDS011;3015;51.390;12.256;2022-10-22T00:02:40;11.05;;;10.13;;
5977;SDS011;3015;51.390;12.256;2022-10-22T00:05:06;11.63;;;10.10;;
5977;SDS011;3015;51.390;12.256;2022-10-22T00:07:33;10.43;;;9.55;;
5977;SDS011;3015;51.390;12.256;2022-10-22T00:09:59;10.40;;;9.60;;
5977;SDS011;3015;51.390;12.256;2022-10-22T00:12:25;11.93;;;10.83;;
5977;SDS011;3015;51.390;12.256;2022-10-22T00:14:51;10.83;;;9.20;;
5977;SDS011;3015;51.390;12.256;2022-10-22T00:17:17;10.03;;;9.13;;
5977;SDS011;3015;51.390;12.256;2022-10-22T00:19:43;10.50;;;9.70;;
5977;SDS011;3015;51.390;12.256;2022-10-22T00:22:09;11.00;;;10.10;;
5977;SDS011;3015;51.390;12.256;2022-10-22T00:24:36;11.30;;;10.10;;
5977;SDS011;3015;51.390;12.256;2022-10-22T00:27:03;11.10;;;10.00;;
5977;SDS011;3015;51.390;12.256;2022-10-22T00:29:29;9.77;;;8.97;;
5977;SDS011;3015;51.390;12.256;2022-10-22T00:31:55;10.25;;;9.00;;
5977;SDS011;3015;51.390;12.256;2022-10-22T00:34:21;10.47;;;9.47;;
5977;SDS011;3015;51.390;12.256;2022-10-22T00:36:48;10.93;;;9.97;;
5977;SDS011;3015;51.390;12.256;2022-10-22T00:39:14;10.70;;;9.70;;
5977;SDS011;3015;51.390;12.256;2022-10-22T00:41:42;10.50;;;9.50;;
5977;SDS011;3015;51.390;12.256;2022-10-22T00:47:12;10.93;;;9.80;;
5977;SDS011;3015;51.390;12.256;2022-10-22T00:49:39;8.93;;;8.20;;
5977;SDS011;3015;51.390;12.256;2022-10-22T00:52:05;9.73;;;8.67;;
5977;SDS011;3015;51.390;12.256;2022-10-22T00:54:31;11.57;;;10.33;;
5977;SDS011;3015;51.390;12.256;2022-10-22T00:56:58;9.73;;;9.03;;
5977;SDS011;3015;51.390;12.256;2022-10-22T00:59:24;10.23;;;9.33;;
5977;SDS011;3015;51.390;12.256;2022-10-22T01:01:50;8.80;;;8.07;;
5977;SDS011;3015;51.390;12.256;2022-10-22T01:04:16;8.55;;;7.75;;
5977;SDS011;3015;51.390;12.256;2022-10-22T01:06:43;10.40;;;9.48;;
5977;SDS011;3015;51.390;12.256;2022-10-22T01:09:15;11.40;;;9.17;;
5977;SDS011;3015;51.390;12.256;2022-10-22T01:24:05;11.30;;;10.30;;
5977;SDS011;3015;51.390;12.256;2022-10-22T01:31:43;10.00;;;9.10;;
5977;SDS011;3015;51.390;12.256;2022-10-22T01:34:13;10.57;;;9.30;;
5977;SDS011;3015;51.390;12.256;2022-10-22T01:36:41;11.90;;;10.70;;
5977;SDS011;3015;51.390;12.256;2022-10-22T01:39:08;11.55;;;10.65;;
5977;SDS011;3015;51.390;12.256;2022-10-22T01:41:35;10.33;;;9.60;;
5977;SDS011;3015;51.390;12.256;2022-10-22T01:44:03;12.05;;;10.85;;
5977;SDS011;3015;51.390;12.256;2022-10-22T01:46:28;13.60;;;11.03;;
5977;SDS011;3015;51.390;12.256;2022-10-22T01:51:34;10.80;;;9.90;;
5977;SDS011;3015;51.390;12.256;2022-10-22T01:54:18;10.10;;;9.20;;
5977;SDS011;3015;51.390;12.256;2022-10-22T01:56:52;11.03;;;10.10;;
5977;SDS011;3015;51.390;12.256;2022-10-22T02:05:07;11.65;;;10.73;;
5977;SDS011;3015;51.390;12.256;2022-10-22T02:07:46;12.03;;;10.83;;
5977;SDS011;3015;51.390;12.256;2022-10-22T02:10:18;11.97;;;10.80;;
5977;SDS011;3015;51.390;12.256;2022-10-22T02:12:45;12.83;;;11.27;;
5977;SDS011;3015;51.390;12.256;2022-10-22T02:15:14;10.87;;;9.97;;
5977;SDS011;3015;51.390;12.256;2022-10-22T02:17:42;11.30;;;10.10;;
5977;SDS011;3015;51.390;12.256;2022-10-22T02:20:32;10.30;;;9.07;;
5977;SDS011;3015;51.390;12.256;2022-10-22T02:22:58;10.47;;;9.53;;
5977;SDS011;3015;51.390;12.256;2022-10-22T02:25:25;10.93;;;9.80;;
5977;SDS011;3015;51.390;12.256;2022-10-22T02:30:37;10.63;;;9.73;;
5977;SDS011;3015;51.390;12.256;2022-10-22T02:33:49;13.50;;;9.10;;
5977;SDS011;3015;51.390;12.256;2022-10-22T02:35:57;11.95;;;10.95;;
5977;SDS011;3015;51.390;12.256;2022-10-22T02:38:25;11.35;;;10.35;;
5977;SDS011;3015;51.390;12.256;2022-10-22T02:40:52;11.57;;;10.57;;
5977;SDS011;3015;51.390;12.256;2022-10-22T02:43:17;10.53;;;9.70;;
5977;SDS011;3015;51.390;12.256;2022-10-22T02:45:43;11.40;;;10.33;;
5977;SDS011;3015;51.390;12.256;2022-10-22T02:48:10;10.93;;;9.88;;
5977;SDS011;3015;51.390;12.256;2022-10-22T02:50:36;12.23;;;11.03;;
5977;SDS011;3015;51.390;12.256;2022-10-22T02:53:01;10.77;;;9.93;;
5977;SDS011;3015;51.390;12.256;2022-10-22T02:55:27;12.73;;;11.43;;
5977;SDS011;3015;51.390;12.256;2022-10-22T02:57:53;14.07;;;11.57;;
5977;SDS011;3015;51.390;12.256;2022-10-22T03:00:18;10.50;;;9.60;;
5977;SDS011;3015;51.390;12.256;2022-10-22T03:02:44;11.07;;;10.23;;
5977;SDS011;3015;51.390;12.256;2022-10-22T03:05:10;10.60;;;9.80;;
5977;SDS011;3015;51.390;12.256;2022-10-22T03:07:36;16.30;;;14.13;;
5977;SDS011;3015;51.390;12.256;2022-10-22T03:10:01;14.60;;;13.20;;
5977;SDS011;3015;51.390;12.256;2022-10-22T03:12:27;12.73;;;11.68;;
5977;SDS011;3015;51.390;12.256;2022-10-22T03:14:53;12.90;;;11.70;;
5977;SDS011;3015;51.390;12.256;2022-10-22T03:17:19;12.50;;;11.20;;
5977;SDS011;3015;51.390;12.256;2022-10-22T03:19:44;13.73;;;12.43;;
5977;SDS011;3015;51.390;12.256;2022-10-22T03:22:11;14.23;;;11.43;;
5977;SDS011;3015;51.390;12.256;2022-10-22T03:24:48;14.55;;;12.75;;
5977;SDS011;3015;51.390;12.256;2022-10-22T03:27:16;14.27;;;13.00;;
5977;SDS011;3015;51.390;12.256;2022-10-22T03:29:43;14.65;;;12.90;;
5977;SDS011;3015;51.390;12.256;2022-10-22T03:32:11;13.65;;;12.35;;
5977;SDS011;3015;51.390;12.256;2022-10-22T03:34:37;11.70;;;10.80;;
5977;SDS011;3015;51.390;12.256;2022-10-22T03:37:02;13.23;;;11.87;;
5977;SDS011;3015;51.390;12.256;2022-10-22T03:39:28;11.63;;;10.50;;
5977;SDS011;3015;51.390;12.256;2022-10-22T03:41:57;11.65;;;10.50;;
5977;SDS011;3015;51.390;12.256;2022-10-22T03:44:22;14.70;;;13.30;;
5977;SDS011;3015;51.390;12.256;2022-10-22T03:46:49;14.52;;;13.02;;
5977;SDS011;3015;51.390;12.256;2022-10-22T03:49:15;13.93;;;12.70;;
5977;SDS011;3015;51.390;12.256;2022-10-22T03:51:41;13.97;;;12.57;;
5977;SDS011;3015;51.390;12.256;2022-10-22T03:54:06;14.93;;;13.57;;
5977;SDS011;3015;51.390;12.256;2022-10-22T03:56:32;14.23;;;12.93;;
5977;SDS011;3015;51.390;12.256;2022-10-22T03:58:58;13.80;;;12.50;;
5977;SDS011;3015;51.390;12.256;2022-10-22T04:01:25;14.63;;;13.10;;
5977;SDS011;3015;51.390;12.256;2022-10-22T04:03:51;12.60;;;11.50;;
5977;SDS011;3015;51.390;12.256;2022-10-22T04:06:17;15.10;;;13.55;;
5977;SDS011;3015;51.390;12.256;2022-10-22T04:08:43;14.60;;;12.87;;
5977;SDS011;3015;51.390;12.256;2022-10-22T04:11:10;13.40;;;12.30;;
5977;SDS011;3015;51.390;12.256;2022-10-22T04:13:36;15.50;;;12.88;;
5977;SDS011;3015;51.390;12.256;2022-10-22T04:16:09;12.07;;;10.83;;
5977;SDS011;3015;51.390;12.256;2022-10-22T04:18:40;14.05;;;12.70;;
5977;SDS011;3015;51.390;12.256;2022-10-22T04:21:08;13.00;;;11.93;;
5977;SDS011;3015;51.390;12.256;2022-10-22T04:23:35;14.30;;;12.85;;
5977;SDS011;3015;51.390;12.256;2022-10-22T04:26:02;12.40;;;11.27;;
5977;SDS011;3015;51.390;12.256;2022-10-22T04:28:30;13.27;;;10.60;;
5977;SDS011;3015;51.390;12.256;2022-10-22T04:30:55;11.00;;;10.00;;
5977;SDS011;3015;51.390;12.256;2022-10-22T04:33:21;12.87;;;11.73;;
5977;SDS011;3015;51.390;12.256;2022-10-22T04:35:47;11.87;;;10.67;;
5977;SDS011;3015;51.390;12.256;2022-10-22T04:38:12;12.00;;;10.90;;
5977;SDS011;3015;51.390;12.256;2022-10-22T04:40:38;12.50;;;11.30;;
5977;SDS011;3015;51.390;12.256;2022-10-22T04:43:04;11.50;;;10.30;;
5977;SDS011;3015;51.390;12.256;2022-10-22T04:45:31;10.80;;;9.83;;
5977;SDS011;3015;51.390;12.256;2022-10-22T04:47:57;11.52;;;9.73;;
5977;SDS011;3015;51.390;12.256;2022-10-22T04:50:23;10.67;;;9.80;;
5977;SDS011;3015;51.390;12.256;2022-10-22T04:52:48;11.73;;;10.73;;
5977;SDS011;3015;51.390;12.256;2022-10-22T04:55:14;10.40;;;9.27;;
5977;SDS011;3015;51.390;12.256;2022-10-22T04:57:39;12.80;;;11.50;;
5977;SDS011;3015;51.390;12.256;2022-10-22T05:00:05;11.20;;;10.20;;
5977;SDS011;3015;51.390;12.256;2022-10-22T05:02:31;10.90;;;10.00;;
5977;SDS011;3015;51.390;12.256;2022-10-22T05:04:57;9.90;;;9.00;;
5977;SDS011;3015;51.390;12.256;2022-10-22T05:07:22;10.83;;;10.07;;
5977;SDS011;3015;51.390;12.256;2022-10-22T05:09:48;11.57;;;10.60;;
5977;SDS011;3015;51.390;12.256;2022-10-22T05:12:14;11.20;;;10.30;;
5977;SDS011;3015;51.390;12.256;2022-10-22T05:14:39;12.43;;;11.23;;
5977;SDS011;3015;51.390;12.256;2022-10-22T05:17:05;11.87;;;10.77;;
5977;SDS011;3015;51.390;12.256;2022-10-22T05:19:31;13.43;;;12.10;;
5977;SDS011;3015;51.390;12.256;2022-10-22T05:21:58;14.57;;;13.27;;
5977;SDS011;3015;51.390;12.256;2022-10-22T05:24:26;13.10;;;11.90;;
5977;SDS011;3015;51.390;12.256;2022-10-22T05:26:54;14.60;;;13.32;;
5977;SDS011;3015;51.390;12.256;2022-10-22T05:29:21;13.55;;;12.18;;
5977;SDS011;3015;51.390;12.256;2022-10-22T05:31:47;12.30;;;11.10;;
5977;SDS011;3015;51.390;12.256;2022-10-22T05:34:13;12.00;;;10.80;;
5977;SDS011;3015;51.390;12.256;2022-10-22T05:36:39;11.20;;;10.15;;
5977;SDS011;3015;51.390;12.256;2022-10-22T05:39:05;14.13;;;12.67;;
5977;SDS011;3015;51.390;12.256;2022-10-22T05:41:31;13.87;;;12.77;;
5977;SDS011;3015;51.390;12.256;2022-10-22T05:43:58;13.90;;;12.50;;
5977;SDS011;3015;51.390;12.256;2022-10-22T05:46:25;13.13;;;11.75;;
5977;SDS011;3015;51.390;12.256;2022-10-22T05:48:56;13.98;;;12.45;;
5977;SDS011;3015;51.390;12.256;2022-10-22T05:51:27;15.20;;;13.35;;
5977;SDS011;3015;51.390;12.256;2022-10-22T05:53:55;14.25;;;12.73;;
5977;SDS011;3015;51.390;12.256;2022-10-22T05:56:22;14.38;;;12.85;;
5977;SDS011;3015;51.390;12.256;2022-10-22T05:58:48;15.32;;;14.00;;
5977;SDS011;3015;51.390;12.256;2022-10-22T06:01:18;15.10;;;13.50;;
5977;SDS011;3015;51.390;12.256;2022-10-22T06:03:46;13.82;;;12.43;;
5977;SDS011;3015;51.390;12.256;2022-10-22T06:06:17;14.30;;;13.02;;
5977;SDS011;3015;51.390;12.256;2022-10-22T06:08:54;14.20;;;12.30;;
5977;SDS011;3015;51.390;12.256;2022-10-22T06:11:23;13.50;;;12.27;;
5977;SDS011;3015;51.390;12.256;2022-10-22T06:13:49;13.87;;;12.47;;
5977;SDS011;3015;51.390;12.256;2022-10-22T06:16:15;15.30;;;13.25;;
5977;SDS011;3015;51.390;12.256;2022-10-22T06:18:41;13.07;;;11.93;;
5977;SDS011;3015;51.390;12.256;2022-10-22T06:21:08;13.60;;;11.73;;
5977;SDS011;3015;51.390;12.256;2022-10-22T06:23:35;14.32;;;13.02;;
5977;SDS011;3015;51.390;12.256;2022-10-22T06:26:02;13.65;;;12.30;;
5977;SDS011;3015;51.390;12.256;2022-10-22T06:28:28;12.68;;;11.48;;
5977;SDS011;3015;51.390;12.256;2022-10-22T06:30:55;13.55;;;12.30;;
5977;SDS011;3015;51.390;12.256;2022-10-22T06:33:22;13.43;;;12.20;;
5977;SDS011;3015;51.390;12.256;2022-10-22T06:35:47;12.10;;;11.10;;
5977;SDS011;3015;51.390;12.256;2022-10-22T06:38:13;12.53;;;11.37;;
5977;SDS011;3015;51.390;12.256;2022-10-22T06:40:39;12.33;;;11.23;;
5977;SDS011;3015;51.390;12.256;2022-10-22T06:43:07;13.70;;;12.30;;
5977;SDS011;3015;51.390;12.256;2022-10-22T06:45:34;16.98;;;12.32;;
5977;SDS011;3015;51.390;12.256;2022-10-22T06:47:59;14.10;;;12.77;;
5977;SDS011;3015;51.390;12.256;2022-10-22T06:50:25;13.10;;;11.77;;
5977;SDS011;3015;51.390;12.256;2022-10-22T06:52:51;13.10;;;11.80;;
5977;SDS011;3015;51.390;12.256;2022-10-22T06:55:16;16.27;;;13.30;;
5977;SDS011;3015;51.390;12.256;2022-10-22T06:57:42;12.23;;;11.00;;
5977;SDS011;3015;51.390;12.256;2022-10-22T07:00:08;13.87;;;12.47;;
5977;SDS011;3015;51.390;12.256;2022-10-22T07:02:33;12.98;;;11.82;;
5977;SDS011;3015;51.390;12.256;2022-10-22T07:04:59;15.63;;;14.03;;
5977;SDS011;3015;51.390;12.256;2022-10-22T07:07:25;12.23;;;11.13;;
5977;SDS011;3015;51.390;12.256;2022-10-22T07:09:50;13.17;;;12.07;;
5977;SDS011;3015;51.390;12.256;2022-10-22T07:12:16;13.77;;;12.37;;
5977;SDS011;3015;51.390;12.256;2022-10-22T07:14:42;11.80;;;10.70;;
5977;SDS011;3015;51.390;12.256;2022-10-22T07:17:07;13.73;;;12.10;;
5977;SDS011;3015;51.390;12.256;2022-10-22T07:19:33;13.90;;;12.50;;
5977;SDS011;3015;51.390;12.256;2022-10-22T07:21:59;12.03;;;11.03;;
5977;SDS011;3015;51.390;12.256;2022-10-22T07:24:25;11.80;;;10.60;;
5977;SDS011;3015;51.390;12.256;2022-10-22T07:26:50;12.10;;;10.90;;
5977;SDS011;3015;51.390;12.256;2022-10-22T07:29:16;11.50;;;10.50;;
5977;SDS011;3015;51.390;12.256;2022-10-22T07:31:42;11.53;;;10.40;;
5977;SDS011;3015;51.390;12.256;2022-10-22T07:34:08;10.20;;;9.40;;
5977;SDS011;3015;51.390;12.256;2022-10-22T07:36:34;11.00;;;10.20;;
5977;SDS011;3015;51.390;12.256;2022-10-22T07:39:00;10.87;;;9.77;;
5977;SDS011;3015;51.390;12.256;2022-10-22T07:41:28;11.50;;;9.63;;
5977;SDS011;3015;51.390;12.256;2022-10-22T07:43:54;9.60;;;8.80;;
5977;SDS011;3015;51.390;12.256;2022-10-22T07:46:21;10.47;;;9.47;;
5977;SDS011;3015;51.390;12.256;2022-10-22T07:48:47;10.33;;;9.07;;
5977;SDS011;3015;51.390;12.256;2022-10-22T07:51:13;10.67;;;9.63;;
5977;SDS011;3015;51.390;12.256;2022-10-22T07:53:39;9.13;;;8.35;;
5977;SDS011;3015;51.390;12.256;2022-10-22T07:56:05;9.30;;;8.60;;
5977;SDS011;3015;51.390;12.256;2022-10-22T07:58:31;9.70;;;9.00;;
5977;SDS011;3015;51.390;12.256;2022-10-22T08:00:58;9.27;;;8.47;;
5977;SDS011;3015;51.390;12.256;2022-10-22T08:03:25;9.90;;;8.80;;
5977;SDS011;3015;51.390;12.256;2022-10-22T08:05:51;10.37;;;9.40;;
5977;SDS011;3015;51.390;12.256;2022-10-22T08:08:18;9.70;;;8.70;;
5977;SDS011;3015;51.390;12.256;2022-10-22T08:10:44;11.97;;;9.33;;
5977;SDS011;3015;51.390;12.256;2022-10-22T08:13:11;11.00;;;10.00;;
5977;SDS011;3015;51.390;12.256;2022-10-22T08:15:37;10.40;;;9.43;;
5977;SDS011;3015;51.390;12.256;2022-10-22T08:18:03;10.03;;;9.23;;
5977;SDS011;3015;51.390;12.256;2022-10-22T08:20:29;10.57;;;9.47;;
5977;SDS011;3015;51.390;12.256;2022-10-22T08:22:54;9.80;;;8.80;;
5977;SDS011;3015;51.390;12.256;2022-10-22T08:25:20;9.17;;;8.23;;
5977;SDS011;3015;51.390;12.256;2022-10-22T08:27:46;8.90;;;8.10;;
5977;SDS011;3015;51.390;12.256;2022-10-22T08:30:11;10.87;;;9.87;;
5977;SDS011;3015;51.390;12.256;2022-10-22T08:32:38;10.00;;;9.10;;
5977;SDS011;3015;51.390;12.256;2022-10-22T08:35:04;8.87;;;8.10;;
5977;SDS011;3015;51.390;12.256;2022-10-22T08:37:29;9.80;;;9.03;;
5977;SDS011;3015;51.390;12.256;2022-10-22T08:39:55;9.80;;;8.90;;
5977;SDS011;3015;51.390;12.256;2022-10-22T08:50:51;9.77;;;8.83;;
5977;SDS011;3015;51.390;12.256;2022-10-22T08:53:21;8.20;;;7.60;;
5977;SDS011;3015;51.390;12.256;2022-10-22T08:56:13;10.70;;;7.83;;
5977;SDS011;3015;51.390;12.256;2022-10-22T08:58:41;9.10;;;8.20;;
5977;SDS011;3015;51.390;12.256;2022-10-22T09:01:21;8.50;;;7.83;;
5977;SDS011;3015;51.390;12.256;2022-10-22T09:04:00;9.10;;;7.00;;
5977;SDS011;3015;51.390;12.256;2022-10-22T09:06:35;10.93;;;7.13;;
5977;SDS011;3015;51.390;12.256;2022-10-22T09:09:08;7.20;;;6.70;;
5977;SDS011;3015;51.390;12.256;2022-10-22T09:11:38;7.40;;;6.70;;
5977;SDS011;3015;51.390;12.256;2022-10-22T09:14:08;6.67;;;6.17;;
5977;SDS011;3015;51.390;12.256;2022-10-22T09:25:16;4.97;;;4.67;;
5977;SDS011;3015;51.390;12.256;2022-10-22T09:27:48;4.97;;;4.67;;
5977;SDS011;3015;51.390;12.256;2022-10-22T09:30:16;5.40;;;5.00;;
5977;SDS011;3015;51.390;12.256;2022-10-22T09:32:43;4.80;;;4.40;;
5977;SDS011;3015;51.390;12.256;2022-10-22T09:35:09;4.77;;;4.40;;
5977;SDS011;3015;51.390;12.256;2022-10-22T09:37:36;8.53;;;4.37;;
5977;SDS011;3015;51.390;12.256;2022-10-22T09:40:13;4.00;;;3.77;;
5977;SDS011;3015;51.390;12.256;2022-10-22T09:42:39;3.10;;;2.90;;
5977;SDS011;3015;51.390;12.256;2022-10-22T09:45:05;7.13;;;3.87;;
5977;SDS011;3015;51.390;12.256;2022-10-22T09:47:37;3.33;;;2.50;;
5977;SDS011;3015;51.390;12.256;2022-10-22T09:52:36;2.43;;;2.33;;
5977;SDS011;3015;51.390;12.256;2022-10-22T09:55:12;2.93;;;2.73;;
5977;SDS011;3015;51.390;12.256;2022-10-22T09:57:40;2.13;;;1.90;;
5977;SDS011;3015;51.390;12.256;2022-10-22T10:00:09;1.80;;;1.70;;
5977;SDS011;3015;51.390;12.256;2022-10-22T10:02:38;1.97;;;1.87;;
5977;SDS011;3015;51.390;12.256;2022-10-22T10:05:11;1.70;;;1.60;;
5977;SDS011;3015;51.390;12.256;2022-10-22T10:07:51;3.00;;;2.60;;
5977;SDS011;3015;51.390;12.256;2022-10-22T10:10:26;4.17;;;2.23;;
5977;SDS011;3015;51.390;12.256;2022-10-22T10:12:56;2.90;;;2.30;;
5977;SDS011;3015;51.390;12.256;2022-10-22T10:21:09;2.20;;;2.00;;
5977;SDS011;3015;51.390;12.256;2022-10-22T10:27:34;1.97;;;1.87;;
5977;SDS011;3015;51.390;12.256;2022-10-22T10:29:59;2.07;;;1.87;;
5977;SDS011;3015;51.390;12.256;2022-10-22T10:39:24;2.03;;;1.93;;
5977;SDS011;3015;51.390;12.256;2022-10-22T10:49:55;2.80;;;1.80;;
5977;SDS011;3015;51.390;12.256;2022-10-22T10:52:41;1.47;;;1.40;;
5977;SDS011;3015;51.390;12.256;2022-10-22T10:55:31;1.20;;;1.20;;
5977;SDS011;3015;51.390;12.256;2022-10-22T11:00:51;1.93;;;1.33;;
5977;SDS011;3015;51.390;12.256;2022-10-22T11:06:09;1.67;;;1.57;;
5977;SDS011;3015;51.390;12.256;2022-10-22T11:08:41;1.70;;;1.60;;
5977;SDS011;3015;51.390;12.256;2022-10-22T11:11:15;1.87;;;1.73;;
5977;SDS011;3015;51.390;12.256;2022-10-22T11:13:50;1.53;;;1.43;;
5977;SDS011;3015;51.390;12.256;2022-10-22T11:23:54;1.70;;;1.27;;
5977;SDS011;3015;51.390;12.256;2022-10-22T11:26:38;1.80;;;1.70;;
5977;SDS011;3015;51.390;12.256;2022-10-22T11:29:14;2.70;;;1.40;;
5977;SDS011;3015;51.390;12.256;2022-10-22T11:31:47;3.10;;;1.50;;
5977;SDS011;3015;51.390;12.256;2022-10-22T11:34:15;1.80;;;1.57;;
5977;SDS011;3015;51.390;12.256;2022-10-22T11:36:46;2.27;;;1.77;;
5977;SDS011;3015;51.390;12.256;2022-10-22T11:39:29;2.00;;;1.43;;
5977;SDS011;3015;51.390;12.256;2022-10-22T11:42:34;2.10;;;2.00;;
5977;SDS011;3015;51.390;12.256;2022-10-22T11:45:22;1.67;;;1.57;;
5977;SDS011;3015;51.390;12.256;2022-10-22T11:50:23;1.63;;;1.53;;
5977;SDS011;3015;51.390;12.256;2022-10-22T11:53:02;1.20;;;1.20;;
5977;SDS011;3015;51.390;12.256;2022-10-22T11:55:30;1.60;;;1.50;;
5977;SDS011;3015;51.390;12.256;2022-10-22T11:58:22;1.67;;;1.57;;
5977;SDS011;3015;51.390;12.256;2022-10-22T12:03:38;1.87;;;1.40;;
5977;SDS011;3015;51.390;12.256;2022-10-22T12:17:20;3.00;;;1.70;;
5977;SDS011;3015;51.390;12.256;2022-10-22T12:19:50;1.40;;;1.30;;
5977;SDS011;3015;51.390;12.256;2022-10-22T12:22:26;1.83;;;1.53;;
5977;SDS011;3015;51.390;12.256;2022-10-22T12:25:01;3.43;;;1.53;;
5977;SDS011;3015;51.390;12.256;2022-10-22T12:27:37;2.30;;;2.10;;
5977;SDS011;3015;51.390;12.256;2022-10-22T12:32:54;1.80;;;1.70;;
5977;SDS011;3015;51.390;12.256;2022-10-22T12:35:23;2.10;;;2.00;;
5977;SDS011;3015;51.390;12.256;2022-10-22T12:37:51;2.00;;;1.60;;
5977;SDS011;3015;51.390;12.256;2022-10-22T12:40:20;1.87;;;1.77;;
5977;SDS011;3015;51.390;12.256;2022-10-22T12:42:59;1.87;;;1.70;;
5977;SDS011;3015;51.390;12.256;2022-10-22T12:45:29;4.57;;;2.00;;
5977;SDS011;3015;51.390;12.256;2022-10-22T12:47:57;2.47;;;2.00;;
5977;SDS011;3015;51.390;12.256;2022-10-22T12:50:35;1.70;;;1.60;;
5977;SDS011;3015;51.390;12.256;2022-10-22T12:53:16;1.80;;;1.70;;
5977;SDS011;3015;51.390;12.256;2022-10-22T12:55:47;2.17;;;1.97;;
5977;SDS011;3015;51.390;12.256;2022-10-22T12:58:15;2.10;;;2.00;;
5977;SDS011;3015;51.390;12.256;2022-10-22T13:00:44;4.30;;;2.27;;
5977;SDS011;3015;51.390;12.256;2022-10-22T13:03:10;4.40;;;2.20;;
5977;SDS011;3015;51.390;12.256;2022-10-22T13:05:54;2.47;;;2.30;;
5977;SDS011;3015;51.390;12.256;2022-10-22T13:08:21;2.63;;;2.43;;
5977;SDS011;3015;51.390;12.256;2022-10-22T13:10:51;2.00;;;1.90;;
5977;SDS011;3015;51.390;12.256;2022-10-22T13:16:16;4.60;;;2.83;;
5977;SDS011;3015;51.390;12.256;2022-10-22T13:18:48;2.30;;;2.20;;
5977;SDS011;3015;51.390;12.256;2022-10-22T13:23:53;3.80;;;2.57;;
5977;SDS011;3015;51.390;12.256;2022-10-22T13:26:21;2.47;;;2.27;;
5977;SDS011;3015;51.390;12.256;2022-10-22T13:28:50;3.23;;;2.33;;
5977;SDS011;3015;51.390;12.256;2022-10-22T13:31:20;2.40;;;2.20;;
5977;SDS011;3015;51.390;12.256;2022-10-22T13:33:55;2.87;;;2.53;;
5977;SDS011;3015;51.390;12.256;2022-10-22T13:36:24;2.73;;;2.20;;
5977;SDS011;3015;51.390;12.256;2022-10-22T13:38:50;2.60;;;2.40;;
5977;SDS011;3015;51.390;12.256;2022-10-22T13:41:23;2.07;;;1.87;;
5977;SDS011;3015;51.390;12.256;2022-10-22T13:43:51;2.73;;;2.17;;
5977;SDS011;3015;51.390;12.256;2022-10-22T13:46:17;2.43;;;2.23;;
5977;SDS011;3015;51.390;12.256;2022-10-22T13:48:44;2.70;;;2.50;;
5977;SDS011;3015;51.390;12.256;2022-10-22T13:51:12;2.90;;;2.00;;
5977;SDS011;3015;51.390;12.256;2022-10-22T13:53:49;8.33;;;2.30;;
5977;SDS011;3015;51.390;12.256;2022-10-22T13:56:18;2.50;;;2.40;;
5977;SDS011;3015;51.390;12.256;2022-10-22T13:58:45;7.43;;;2.93;;
5977;SDS011;3015;51.390;12.256;2022-10-22T14:01:15;3.17;;;2.80;;
5977;SDS011;3015;51.390;12.256;2022-10-22T14:03:50;3.77;;;2.77;;
5977;SDS011;3015;51.390;12.256;2022-10-22T14:06:26;3.80;;;2.07;;
5977;SDS011;3015;51.390;12.256;2022-10-22T14:08:59;2.63;;;2.37;;
5977;SDS011;3015;51.390;12.256;2022-10-22T14:11:27;3.10;;;2.90;;
5977;SDS011;3015;51.390;12.256;2022-10-22T14:13:54;3.13;;;2.30;;
5977;SDS011;3015;51.390;12.256;2022-10-22T14:16:21;2.67;;;2.43;;
5977;SDS011;3015;51.390;12.256;2022-10-22T14:18:49;3.27;;;2.97;;
5977;SDS011;3015;51.390;12.256;2022-10-22T14:21:15;3.67;;;2.80;;
5977;SDS011;3015;51.390;12.256;2022-10-22T14:23:42;7.03;;;2.90;;
5977;SDS011;3015;51.390;12.256;2022-10-22T14:26:25;3.30;;;3.00;;
5977;SDS011;3015;51.390;12.256;2022-10-22T14:28:54;3.40;;;3.10;;
5977;SDS011;3015;51.390;12.256;2022-10-22T14:31:20;3.67;;;3.30;;
5977;SDS011;3015;51.390;12.256;2022-10-22T14:33:45;6.10;;;4.17;;
5977;SDS011;3015;51.390;12.256;2022-10-22T14:36:11;3.33;;;3.10;;
5977;SDS011;3015;51.390;12.256;2022-10-22T14:38:38;3.30;;;3.10;;
5977;SDS011;3015;51.390;12.256;2022-10-22T14:41:04;3.83;;;3.37;;
5977;SDS011;3015;51.390;12.256;2022-10-22T14:43:45;2.80;;;2.70;;
5977;SDS011;3015;51.390;12.256;2022-10-22T14:46:11;3.53;;;3.23;;
5977;SDS011;3015;51.390;12.256;2022-10-22T14:48:39;5.00;;;3.07;;
5977;SDS011;3015;51.390;12.256;2022-10-22T14:51:05;3.47;;;3.27;;
5977;SDS011;3015;51.390;12.256;2022-10-22T14:53:31;4.10;;;3.43;;
5977;SDS011;3015;51.390;12.256;2022-10-22T14:55:56;3.73;;;3.43;;
5977;SDS011;3015;51.390;12.256;2022-10-22T14:58:23;4.37;;;3.67;;
5977;SDS011;3015;51.390;12.256;2022-10-22T15:00:49;3.93;;;3.50;;
5977;SDS011;3015;51.390;12.256;2022-10-22T15:03:15;3.80;;;3.50;;
5977;SDS011;3015;51.390;12.256;2022-10-22T15:05:42;4.30;;;3.97;;
5977;SDS011;3015;51.390;12.256;2022-10-22T15:08:08;4.07;;;3.77;;
5977;SDS011;3015;51.390;12.256;2022-10-22T15:10:34;5.33;;;3.97;;
5977;SDS011;3015;51.390;12.256;2022-10-22T15:13:00;4.50;;;4.20;;
5977;SDS011;3015;51.390;12.256;2022-10-22T15:15:26;4.70;;;4.40;;
5977;SDS011;3015;51.390;12.256;2022-10-22T15:17:52;5.53;;;3.80;;
5977;SDS011;3015;51.390;12.256;2022-10-22T15:20:18;5.20;;;4.23;;
5977;SDS011;3015;51.390;12.256;2022-10-22T15:22:44;4.50;;;4.20;;
5977;SDS011;3015;51.390;12.256;2022-10-22T15:25:10;5.60;;;4.20;;
5977;SDS011;3015;51.390;12.256;2022-10-22T15:27:37;4.70;;;4.27;;
5977;SDS011;3015;51.390;12.256;2022-10-22T15:30:04;5.07;;;4.53;;
5977;SDS011;3015;51.390;12.256;2022-10-22T15:32:31;4.93;;;3.30;;
5977;SDS011;3015;51.390;12.256;2022-10-22T15:34:58;5.63;;;5.13;;
5977;SDS011;3015;51.390;12.256;2022-10-22T15:37:25;8.57;;;6.47;;
5977;SDS011;3015;51.390;12.256;2022-10-22T15:39:51;6.60;;;6.00;;
5977;SDS011;3015;51.390;12.256;2022-10-22T15:42:17;5.50;;;5.07;;
5977;SDS011;3015;51.390;12.256;2022-10-22T15:44:43;5.73;;;5.33;;
5977;SDS011;3015;51.390;12.256;2022-10-22T15:47:09;5.03;;;4.70;;
5977;SDS011;3015;51.390;12.256;2022-10-22T15:49:36;4.73;;;4.30;;
5977;SDS011;3015;51.390;12.256;2022-10-22T15:52:03;4.20;;;3.90;;
5977;SDS011;3015;51.390;12.256;2022-10-22T15:54:29;4.17;;;3.90;;
5977;SDS011;3015;51.390;12.256;2022-10-22T15:56:56;5.30;;;4.80;;
5977;SDS011;3015;51.390;12.256;2022-10-22T15:59:22;5.23;;;4.47;;
5977;SDS011;3015;51.390;12.256;2022-10-22T16:01:48;4.67;;;4.27;;
5977;SDS011;3015;51.390;12.256;2022-10-22T16:04:14;4.70;;;4.30;;
5977;SDS011;3015;51.390;12.256;2022-10-22T16:06:41;4.57;;;4.17;;
5977;SDS011;3015;51.390;12.256;2022-10-22T16:09:09;4.43;;;4.10;;
5977;SDS011;3015;51.390;12.256;2022-10-22T16:11:35;7.37;;;5.20;;
5977;SDS011;3015;51.390;12.256;2022-10-22T16:14:02;4.57;;;4.17;;
5977;SDS011;3015;51.390;12.256;2022-10-22T16:16:29;7.50;;;5.13;;
5977;SDS011;3015;51.390;12.256;2022-10-22T16:18:55;5.00;;;4.60;;
5977;SDS011;3015;51.390;12.256;2022-10-22T16:21:21;5.97;;;5.03;;
5977;SDS011;3015;51.390;12.256;2022-10-22T16:23:48;5.03;;;4.57;;
5977;SDS011;3015;51.390;12.256;2022-10-22T16:26:14;5.53;;;5.03;;
5977;SDS011;3015;51.390;12.256;2022-10-22T16:28:41;4.60;;;4.40;;
5977;SDS011;3015;51.390;12.256;2022-10-22T16:31:08;4.13;;;3.90;;
5977;SDS011;3015;51.390;12.256;2022-10-22T16:33:35;7.43;;;4.93;;
5977;SDS011;3015;51.390;12.256;2022-10-22T16:36:03;5.40;;;4.77;;
5977;SDS011;3015;51.390;12.256;2022-10-22T16:38:40;4.80;;;4.40;;
5977;SDS011;3015;51.390;12.256;2022-10-22T16:41:10;5.80;;;5.17;;
5977;SDS011;3015;51.390;12.256;2022-10-22T16:43:43;6.73;;;6.30;;
5977;SDS011;3015;51.390;12.256;2022-10-22T16:46:17;7.30;;;6.70;;
5977;SDS011;3015;51.390;12.256;2022-10-22T16:48:47;7.27;;;6.60;;
5977;SDS011;3015;51.390;12.256;2022-10-22T16:51:16;7.85;;;6.28;;